LVCUE SBFI-SAME
Flight info
| Callsign | LVCUE |
|---|---|
| Flight time | N/A |
| Altitude | 40000 |
| Route | ALGEL DCT SIROX UL531 SAMGU/N0424F430 UL531 SALBO SALBO1U |
| Aircraft | LJ35/M-SGHRWXY/SB1 |
Departure
| Time | 2026-04-22 00:11 |
|---|---|
| Airport | Cataratas International Airport (SBFI) |
Arrival
| Time | N/A |
|---|---|
| Airport | Governor Francisco Gabrielli International Airport (SAME) |
| Time | Latitude | Longitude | Altitude | Speed | Heading |
|---|---|---|---|---|---|
| 2026-04-21 23:51 | -25.59619 | -54.48941 | 776 ft | 0 kts | 221° |
| 2026-04-22 00:08 | -25.59621 | -54.48942 | 776 ft | 4 kts | 198° |
| 2026-04-22 00:08 | -25.59614 | -54.48923 | 776 ft | 6 kts | 28° |
| 2026-04-22 00:08 | -25.59563 | -54.48918 | 776 ft | 10 kts | 328° |
| 2026-04-22 00:08 | -25.59532 | -54.48927 | 776 ft | 0 kts | 19° |
| 2026-04-22 00:09 | -25.59471 | -54.48891 | 777 ft | 14 kts | 348° |
| 2026-04-22 00:09 | -25.59391 | -54.48976 | 776 ft | 18 kts | 311° |
| 2026-04-22 00:09 | -25.59297 | -54.49096 | 773 ft | 23 kts | 311° |
| 2026-04-22 00:10 | -25.59186 | -54.49239 | 770 ft | 27 kts | 310° |
| 2026-04-22 00:10 | -25.59056 | -54.49404 | 768 ft | 30 kts | 310° |
| 2026-04-22 00:10 | -25.58924 | -54.49520 | 765 ft | 17 kts | 291° |
| 2026-04-22 00:10 | -25.58957 | -54.49533 | 765 ft | 1 kts | 131° |
| 2026-04-22 00:11 | -25.59104 | -54.49345 | 768 ft | 85 kts | 130° |
| 2026-04-22 00:11 | -25.59715 | -54.48558 | 1020 ft | 163 kts | 131° |
| 2026-04-22 00:11 | -25.60519 | -54.47517 | 2164 ft | 191 kts | 131° |
| 2026-04-22 00:11 | -25.61428 | -54.46363 | 3427 ft | 199 kts | 130° |
| 2026-04-22 00:12 | -25.62323 | -54.45217 | 4640 ft | 197 kts | 129° |
| 2026-04-22 00:12 | -25.63242 | -54.44034 | 5895 ft | 211 kts | 130° |
| 2026-04-22 00:12 | -25.64223 | -54.42772 | 7253 ft | 220 kts | 131° |
| 2026-04-22 00:12 | -25.65234 | -54.41473 | 8667 ft | 225 kts | 131° |
| 2026-04-22 00:13 | -25.66267 | -54.40144 | 10097 ft | 230 kts | 131° |
| 2026-04-22 00:13 | -25.67395 | -54.38886 | 11454 ft | 231 kts | 146° |
| 2026-04-22 00:13 | -25.68827 | -54.38108 | 12854 ft | 228 kts | 166° |
| 2026-04-22 00:13 | -25.70376 | -54.37882 | 14249 ft | 222 kts | 185° |
| 2026-04-22 00:14 | -25.71859 | -54.38197 | 15558 ft | 213 kts | 203° |
| 2026-04-22 00:14 | -25.73123 | -54.38955 | 16918 ft | 201 kts | 220° |
| 2026-04-22 00:14 | -25.74076 | -54.40010 | 18286 ft | 187 kts | 236° |
| 2026-04-22 00:14 | -25.74710 | -54.41197 | 19433 ft | 172 kts | 245° |
| 2026-04-22 00:15 | -25.75257 | -54.42293 | 20517 ft | 156 kts | 244° |
| 2026-04-22 00:15 | -25.75757 | -54.43287 | 21535 ft | 139 kts | 245° |
| 2026-04-22 00:15 | -25.76210 | -54.44236 | 22193 ft | 145 kts | 251° |
| 2026-04-22 00:15 | -25.76360 | -54.45399 | 22668 ft | 157 kts | 267° |
| 2026-04-22 00:16 | -25.76480 | -54.46613 | 23416 ft | 161 kts | 263° |
| 2026-04-22 00:16 | -25.76660 | -54.47855 | 24104 ft | 163 kts | 262° |
| 2026-04-22 00:16 | -25.76847 | -54.49086 | 24793 ft | 161 kts | 261° |
| 2026-04-22 00:16 | -25.77034 | -54.50304 | 25482 ft | 159 kts | 261° |
| 2026-04-22 00:17 | -25.77218 | -54.51509 | 26159 ft | 157 kts | 261° |
| 2026-04-22 00:17 | -25.77397 | -54.52692 | 26826 ft | 154 kts | 261° |
| 2026-04-22 00:17 | -25.77574 | -54.53857 | 27458 ft | 152 kts | 260° |
| 2026-04-22 00:17 | -25.77748 | -54.55002 | 28090 ft | 149 kts | 260° |
| 2026-04-22 00:18 | -25.77918 | -54.56128 | 28694 ft | 147 kts | 260° |
| 2026-04-22 00:18 | -25.78086 | -54.57238 | 29256 ft | 145 kts | 259° |
| 2026-04-22 00:18 | -25.78250 | -54.58328 | 29801 ft | 142 kts | 259° |
| 2026-04-22 00:18 | -25.78412 | -54.59390 | 30281 ft | 140 kts | 259° |
| 2026-04-22 00:19 | -25.78573 | -54.60462 | 30650 ft | 142 kts | 259° |
| 2026-04-22 00:19 | -25.78737 | -54.61560 | 30966 ft | 148 kts | 260° |
| 2026-04-22 00:19 | -25.78913 | -54.62745 | 31137 ft | 163 kts | 260° |
| 2026-04-22 00:19 | -25.79106 | -54.64030 | 31417 ft | 173 kts | 260° |
| 2026-04-22 00:20 | -25.79309 | -54.65377 | 31778 ft | 180 kts | 260° |
| 2026-04-22 00:20 | -25.79521 | -54.66769 | 32188 ft | 185 kts | 260° |
| 2026-04-22 00:20 | -25.79737 | -54.68198 | 32634 ft | 189 kts | 260° |
| 2026-04-22 00:20 | -25.79956 | -54.69651 | 33093 ft | 192 kts | 260° |
| 2026-04-22 00:21 | -25.80177 | -54.71123 | 33567 ft | 195 kts | 260° |
| 2026-04-22 00:21 | -25.80401 | -54.72613 | 34042 ft | 197 kts | 260° |
| 2026-04-22 00:21 | -25.80624 | -54.74099 | 34457 ft | 198 kts | 261° |
| 2026-04-22 00:21 | -25.80854 | -54.75633 | 34878 ft | 199 kts | 261° |
| 2026-04-22 00:22 | -25.81079 | -54.77134 | 35281 ft | 200 kts | 261° |
| 2026-04-22 00:22 | -25.81308 | -54.78661 | 35683 ft | 201 kts | 261° |
| 2026-04-22 00:22 | -25.81536 | -54.80189 | 36084 ft | 201 kts | 261° |
| 2026-04-22 00:22 | -25.81766 | -54.81726 | 36472 ft | 202 kts | 262° |
| 2026-04-22 00:23 | -25.81995 | -54.83262 | 36864 ft | 202 kts | 262° |
| 2026-04-22 00:23 | -25.82225 | -54.84800 | 37239 ft | 202 kts | 262° |
| 2026-04-22 00:23 | -25.82456 | -54.86343 | 37607 ft | 202 kts | 262° |
| 2026-04-22 00:23 | -25.82685 | -54.87887 | 37977 ft | 203 kts | 262° |
| 2026-04-22 00:24 | -25.82915 | -54.89430 | 38334 ft | 203 kts | 262° |
| 2026-04-22 00:24 | -25.83142 | -54.90955 | 38671 ft | 203 kts | 262° |
| 2026-04-22 00:24 | -25.83372 | -54.92501 | 38950 ft | 203 kts | 262° |
| 2026-04-22 00:24 | -25.83602 | -54.94046 | 39215 ft | 203 kts | 262° |
| 2026-04-22 00:25 | -25.83832 | -54.95591 | 39473 ft | 203 kts | 262° |
| 2026-04-22 00:25 | -25.84060 | -54.97137 | 39731 ft | 203 kts | 262° |
| 2026-04-22 00:25 | -25.84291 | -54.98690 | 39981 ft | 203 kts | 262° |
| 2026-04-22 00:25 | -25.84523 | -55.00269 | 40045 ft | 213 kts | 262° |
| 2026-04-22 00:26 | -25.84769 | -55.01934 | 40067 ft | 224 kts | 262° |
| 2026-04-22 00:26 | -25.85029 | -55.03697 | 40072 ft | 237 kts | 262° |
| 2026-04-22 00:26 | -25.85303 | -55.05557 | 40075 ft | 251 kts | 262° |
| 2026-04-22 00:26 | -25.85593 | -55.07516 | 40081 ft | 264 kts | 262° |
| 2026-04-22 00:27 | -25.85899 | -55.09582 | 40080 ft | 278 kts | 262° |
| 2026-04-22 00:27 | -25.86215 | -55.11721 | 40080 ft | 291 kts | 262° |
| 2026-04-22 00:27 | -25.86548 | -55.13987 | 40078 ft | 304 kts | 262° |
| 2026-04-22 00:27 | -25.86913 | -55.16362 | 40073 ft | 318 kts | 259° |
| 2026-04-22 00:28 | -25.87693 | -55.18714 | 40083 ft | 333 kts | 248° |
| 2026-04-22 00:28 | -25.88716 | -55.21068 | 40079 ft | 345 kts | 248° |
| 2026-04-22 00:28 | -25.89764 | -55.23521 | 40072 ft | 355 kts | 248° |
| 2026-04-22 00:29 | -25.91937 | -55.28630 | 40075 ft | 375 kts | 248° |
| 2026-04-22 00:29 | -25.94208 | -55.33954 | 40065 ft | 391 kts | 248° |
| 2026-04-22 00:30 | -25.96573 | -55.39515 | 40064 ft | 402 kts | 248° |
| 2026-04-22 00:30 | -25.98586 | -55.44251 | 40065 ft | 406 kts | 248° |
| 2026-04-22 00:31 | -26.00990 | -55.49915 | 40065 ft | 408 kts | 248° |
| 2026-04-22 00:31 | -26.03411 | -55.55626 | 40055 ft | 409 kts | 248° |
| 2026-04-22 00:32 | -26.05830 | -55.61341 | 40060 ft | 408 kts | 248° |
| 2026-04-22 00:32 | -26.08250 | -55.67066 | 40057 ft | 408 kts | 248° |
| 2026-04-22 00:33 | -26.10664 | -55.72785 | 40058 ft | 408 kts | 248° |
| 2026-04-22 00:33 | -26.13080 | -55.78519 | 40062 ft | 408 kts | 248° |
| 2026-04-22 00:34 | -26.15487 | -55.84242 | 40063 ft | 408 kts | 248° |
| 2026-04-22 00:34 | -26.17893 | -55.89969 | 40058 ft | 408 kts | 248° |
| 2026-04-22 00:35 | -26.20296 | -55.95697 | 40055 ft | 408 kts | 248° |
| 2026-04-22 00:35 | -26.22679 | -56.01385 | 40053 ft | 408 kts | 248° |
| 2026-04-22 00:36 | -26.25077 | -56.07116 | 40055 ft | 407 kts | 248° |
| 2026-04-22 00:36 | -26.27468 | -56.12839 | 40049 ft | 407 kts | 248° |
| 2026-04-22 00:37 | -26.29849 | -56.18545 | 40051 ft | 407 kts | 248° |
| 2026-04-22 00:37 | -26.32223 | -56.24245 | 40052 ft | 406 kts | 248° |
| 2026-04-22 00:38 | -26.34602 | -56.29961 | 40045 ft | 406 kts | 248° |
| 2026-04-22 00:38 | -26.36976 | -56.35672 | 40046 ft | 406 kts | 248° |
| 2026-04-22 00:39 | -26.39342 | -56.41375 | 40045 ft | 405 kts | 248° |
| 2026-04-22 00:39 | -26.41711 | -56.47091 | 40040 ft | 405 kts | 249° |
| 2026-04-22 00:40 | -26.44073 | -56.52797 | 40041 ft | 405 kts | 249° |
| 2026-04-22 00:40 | -26.46416 | -56.58469 | 40042 ft | 404 kts | 249° |
| 2026-04-22 00:41 | -26.48773 | -56.64179 | 40041 ft | 404 kts | 249° |
| 2026-04-22 00:41 | -26.51122 | -56.69880 | 40039 ft | 404 kts | 249° |
| 2026-04-22 00:42 | -26.53469 | -56.75582 | 40035 ft | 404 kts | 249° |
| 2026-04-22 00:42 | -26.55811 | -56.81279 | 40026 ft | 403 kts | 249° |
| 2026-04-22 00:43 | -26.58151 | -56.86980 | 40021 ft | 403 kts | 249° |
| 2026-04-22 00:43 | -26.60486 | -56.92677 | 40013 ft | 403 kts | 249° |
| 2026-04-22 00:44 | -26.62805 | -56.98343 | 40007 ft | 403 kts | 249° |
| 2026-04-22 00:44 | -26.65133 | -57.04037 | 40004 ft | 402 kts | 249° |
| 2026-04-22 00:45 | -26.67461 | -57.09740 | 40000 ft | 402 kts | 249° |
| 2026-04-22 00:45 | -26.69786 | -57.15445 | 40003 ft | 402 kts | 249° |
| 2026-04-22 00:46 | -26.72089 | -57.21102 | 40006 ft | 402 kts | 249° |
| 2026-04-22 00:46 | -26.74404 | -57.26798 | 40016 ft | 402 kts | 249° |
| 2026-04-22 00:47 | -26.76713 | -57.32484 | 40019 ft | 401 kts | 249° |
| 2026-04-22 00:47 | -26.79024 | -57.38171 | 40027 ft | 401 kts | 249° |
| 2026-04-22 00:48 | -26.81328 | -57.43856 | 40034 ft | 401 kts | 249° |
| 2026-04-22 00:48 | -26.83630 | -57.49540 | 40037 ft | 400 kts | 249° |
| 2026-04-22 00:49 | -26.85912 | -57.55185 | 40040 ft | 400 kts | 249° |
| 2026-04-22 00:49 | -26.88151 | -57.60885 | 40035 ft | 399 kts | 250° |
| 2026-04-22 00:50 | -26.90397 | -57.66576 | 40035 ft | 399 kts | 250° |
| 2026-04-22 00:50 | -26.92638 | -57.72269 | 40037 ft | 399 kts | 250° |
| 2026-04-22 00:51 | -26.94877 | -57.77966 | 40039 ft | 399 kts | 250° |
| 2026-04-22 00:51 | -26.97095 | -57.83617 | 40036 ft | 399 kts | 250° |
| 2026-04-22 00:52 | -26.99324 | -57.89304 | 40037 ft | 398 kts | 250° |
| 2026-04-22 00:52 | -27.01555 | -57.95003 | 40039 ft | 398 kts | 250° |
| 2026-04-22 00:53 | -27.03777 | -58.00688 | 40035 ft | 398 kts | 250° |
| 2026-04-22 00:53 | -27.05985 | -58.06346 | 40033 ft | 398 kts | 250° |
| 2026-04-22 00:54 | -27.08203 | -58.12038 | 40035 ft | 398 kts | 250° |
| 2026-04-22 00:54 | -27.10416 | -58.17725 | 40038 ft | 398 kts | 250° |
| 2026-04-22 00:55 | -27.12629 | -58.23417 | 40038 ft | 398 kts | 251° |
| 2026-04-22 00:55 | -27.15942 | -58.31959 | 40038 ft | 398 kts | 251° |
| 2026-04-22 00:56 | -27.18150 | -58.37660 | 40041 ft | 397 kts | 251° |
| 2026-04-22 00:56 | -27.20338 | -58.43317 | 40044 ft | 397 kts | 251° |
| 2026-04-22 00:57 | -27.22554 | -58.49020 | 40040 ft | 398 kts | 250° |
| 2026-04-22 00:57 | -27.24802 | -58.54705 | 40037 ft | 397 kts | 251° |
| 2026-04-22 00:58 | -27.27026 | -58.60391 | 40036 ft | 397 kts | 251° |
| 2026-04-22 00:58 | -27.29240 | -58.66037 | 40033 ft | 397 kts | 251° |
| 2026-04-22 00:59 | -27.31461 | -58.71716 | 40030 ft | 397 kts | 251° |
| 2026-04-22 00:59 | -27.33684 | -58.77405 | 40030 ft | 397 kts | 251° |
| 2026-04-22 01:00 | -27.35907 | -58.83104 | 40030 ft | 397 kts | 251° |
| 2026-04-22 01:00 | -27.38122 | -58.88794 | 40032 ft | 397 kts | 251° |
| 2026-04-22 01:01 | -27.40336 | -58.94486 | 40029 ft | 397 kts | 251° |
| 2026-04-22 01:01 | -27.42547 | -59.00179 | 40029 ft | 397 kts | 251° |
| 2026-04-22 01:02 | -27.44991 | -59.05726 | 40022 ft | 404 kts | 241° |
| 2026-04-22 01:02 | -27.48868 | -59.10453 | 40028 ft | 413 kts | 232° |
| 2026-04-22 01:03 | -27.52907 | -59.15047 | 40025 ft | 412 kts | 233° |
| 2026-04-22 01:03 | -27.56947 | -59.19647 | 40036 ft | 412 kts | 233° |
| 2026-04-22 01:04 | -27.60985 | -59.24248 | 40041 ft | 412 kts | 233° |
| 2026-04-22 01:04 | -27.64995 | -59.28824 | 40045 ft | 412 kts | 233° |
| 2026-04-22 01:05 | -27.69027 | -59.33428 | 40056 ft | 412 kts | 233° |
| 2026-04-22 01:05 | -27.73060 | -59.38040 | 40061 ft | 412 kts | 233° |
| 2026-04-22 01:06 | -27.77094 | -59.42659 | 40062 ft | 412 kts | 233° |
| 2026-04-22 01:06 | -27.81119 | -59.47272 | 40061 ft | 412 kts | 233° |
| 2026-04-22 01:07 | -27.85124 | -59.51866 | 40066 ft | 412 kts | 233° |
| 2026-04-22 01:07 | -27.89151 | -59.56493 | 40068 ft | 412 kts | 233° |
| 2026-04-22 01:08 | -27.93179 | -59.61124 | 40070 ft | 412 kts | 233° |
| 2026-04-22 01:08 | -27.97198 | -59.65752 | 40066 ft | 412 kts | 233° |
| 2026-04-22 01:09 | -28.01203 | -59.70367 | 40069 ft | 412 kts | 233° |
| 2026-04-22 01:09 | -28.05220 | -59.75003 | 40067 ft | 413 kts | 233° |
| 2026-04-22 01:10 | -28.09245 | -59.79652 | 40071 ft | 413 kts | 233° |
| 2026-04-22 01:10 | -28.13219 | -59.84289 | 40072 ft | 412 kts | 234° |
| 2026-04-22 01:11 | -28.17208 | -59.88960 | 40069 ft | 412 kts | 233° |
| 2026-04-22 01:11 | -28.21200 | -59.93632 | 40068 ft | 412 kts | 233° |
| 2026-04-22 01:12 | -28.25195 | -59.98317 | 40071 ft | 413 kts | 233° |
| 2026-04-22 01:12 | -28.29191 | -60.03006 | 40073 ft | 412 kts | 234° |
| 2026-04-22 01:13 | -28.33180 | -60.07693 | 40074 ft | 412 kts | 234° |
| 2026-04-22 01:13 | -28.37141 | -60.12352 | 40073 ft | 412 kts | 234° |
| 2026-04-22 01:14 | -28.41122 | -60.17041 | 40071 ft | 412 kts | 234° |
| 2026-04-22 01:14 | -28.45097 | -60.21728 | 40077 ft | 411 kts | 234° |
| 2026-04-22 01:15 | -28.49070 | -60.26418 | 40073 ft | 411 kts | 234° |
| 2026-04-22 01:15 | -28.53036 | -60.31105 | 40077 ft | 411 kts | 234° |
| 2026-04-22 01:16 | -28.56972 | -60.35762 | 40076 ft | 411 kts | 234° |
| 2026-04-22 01:16 | -28.60936 | -60.40458 | 40082 ft | 410 kts | 234° |
| 2026-04-22 01:17 | -28.64893 | -60.45150 | 40083 ft | 410 kts | 234° |
| 2026-04-22 01:17 | -28.68842 | -60.49839 | 40084 ft | 410 kts | 234° |
| 2026-04-22 01:18 | -28.72120 | -60.53735 | 40083 ft | 410 kts | 234° |
| 2026-04-22 01:18 | -28.76066 | -60.58430 | 40085 ft | 410 kts | 234° |
| 2026-04-22 01:19 | -28.80017 | -60.63112 | 40088 ft | 410 kts | 234° |
| 2026-04-22 01:19 | -28.84014 | -60.67775 | 40084 ft | 410 kts | 234° |
| 2026-04-22 01:20 | -28.87980 | -60.72450 | 40085 ft | 410 kts | 234° |
| 2026-04-22 01:20 | -28.91946 | -60.77111 | 40090 ft | 410 kts | 234° |
| 2026-04-22 01:21 | -28.95911 | -60.81785 | 40089 ft | 409 kts | 234° |
| 2026-04-22 01:21 | -28.99855 | -60.86435 | 40089 ft | 409 kts | 234° |
| 2026-04-22 01:22 | -29.03803 | -60.91097 | 40098 ft | 409 kts | 235° |
| 2026-04-22 01:22 | -29.07736 | -60.95747 | 40090 ft | 409 kts | 235° |
| 2026-04-22 01:23 | -29.11689 | -61.00427 | 40091 ft | 408 kts | 235° |
| 2026-04-22 01:23 | -29.15589 | -61.05145 | 40098 ft | 408 kts | 236° |
| 2026-04-22 01:24 | -29.19493 | -61.09843 | 40096 ft | 408 kts | 236° |
| 2026-04-22 01:24 | -29.23393 | -61.14552 | 40099 ft | 407 kts | 236° |
| 2026-04-22 01:25 | -29.27290 | -61.19260 | 40100 ft | 407 kts | 236° |
| 2026-04-22 01:25 | -29.31161 | -61.23944 | 40103 ft | 406 kts | 236° |
| 2026-04-22 01:26 | -29.35054 | -61.28657 | 40104 ft | 406 kts | 236° |
| 2026-04-22 01:26 | -29.38943 | -61.33374 | 40104 ft | 406 kts | 236° |
| 2026-04-22 01:27 | -29.42817 | -61.38076 | 40104 ft | 405 kts | 236° |
| 2026-04-22 01:27 | -29.46688 | -61.42781 | 40106 ft | 405 kts | 236° |
| 2026-04-22 01:28 | -29.50526 | -61.47452 | 40106 ft | 405 kts | 236° |
| 2026-04-22 01:28 | -29.54383 | -61.52150 | 40104 ft | 404 kts | 236° |
| 2026-04-22 01:29 | -29.58246 | -61.56863 | 40111 ft | 404 kts | 236° |
| 2026-04-22 01:29 | -29.62102 | -61.61572 | 40108 ft | 404 kts | 236° |
| 2026-04-22 01:30 | -29.65948 | -61.66275 | 40111 ft | 404 kts | 236° |
| 2026-04-22 01:30 | -29.69793 | -61.70981 | 40109 ft | 404 kts | 237° |
| 2026-04-22 01:31 | -29.73641 | -61.75698 | 40110 ft | 404 kts | 237° |
| 2026-04-22 01:31 | -29.77485 | -61.80414 | 40109 ft | 403 kts | 237° |
| 2026-04-22 01:32 | -29.81298 | -61.85099 | 40119 ft | 403 kts | 237° |
| 2026-04-22 01:32 | -29.85134 | -61.89817 | 40115 ft | 403 kts | 237° |
| 2026-04-22 01:33 | -29.88749 | -61.94685 | 40117 ft | 395 kts | 243° |
| 2026-04-22 01:33 | -29.92042 | -61.99765 | 40117 ft | 396 kts | 242° |
| 2026-04-22 01:34 | -29.95345 | -62.04835 | 40119 ft | 395 kts | 243° |
| 2026-04-22 01:34 | -29.98635 | -62.09909 | 40116 ft | 395 kts | 243° |
| 2026-04-22 01:35 | -30.01931 | -62.14989 | 40123 ft | 395 kts | 243° |
| 2026-04-22 01:35 | -30.05220 | -62.20069 | 40123 ft | 395 kts | 243° |
| 2026-04-22 01:36 | -30.08482 | -62.25111 | 40123 ft | 394 kts | 243° |
| 2026-04-22 01:36 | -30.11767 | -62.30197 | 40126 ft | 394 kts | 243° |
| 2026-04-22 01:37 | -30.15046 | -62.35281 | 40125 ft | 394 kts | 243° |
| 2026-04-22 01:37 | -30.18304 | -62.40337 | 40128 ft | 394 kts | 243° |
| 2026-04-22 01:38 | -30.21576 | -62.45421 | 40126 ft | 394 kts | 243° |
| 2026-04-22 01:38 | -30.24852 | -62.50517 | 40130 ft | 394 kts | 243° |
| 2026-04-22 01:39 | -30.28118 | -62.55606 | 40128 ft | 394 kts | 243° |
| 2026-04-22 01:39 | -30.31387 | -62.60705 | 40130 ft | 394 kts | 243° |
| 2026-04-22 01:40 | -30.34655 | -62.65810 | 40133 ft | 394 kts | 243° |
| 2026-04-22 01:40 | -30.37918 | -62.70917 | 40133 ft | 394 kts | 243° |
| 2026-04-22 01:41 | -30.41139 | -62.75997 | 40134 ft | 394 kts | 243° |
| 2026-04-22 01:41 | -30.44386 | -62.81110 | 40136 ft | 394 kts | 243° |
| 2026-04-22 01:42 | -30.47631 | -62.86232 | 40137 ft | 394 kts | 243° |
| 2026-04-22 01:42 | -30.50874 | -62.91354 | 40138 ft | 394 kts | 243° |
| 2026-04-22 01:43 | -30.54111 | -62.96474 | 40140 ft | 393 kts | 244° |
| 2026-04-22 01:43 | -30.57348 | -63.01601 | 40144 ft | 393 kts | 244° |
| 2026-04-22 01:44 | -30.60555 | -63.06688 | 40149 ft | 393 kts | 244° |
| 2026-04-22 01:44 | -30.63782 | -63.11812 | 40145 ft | 393 kts | 244° |
| 2026-04-22 01:45 | -30.67006 | -63.16937 | 40151 ft | 393 kts | 244° |
| 2026-04-22 01:45 | -30.70228 | -63.22068 | 40144 ft | 392 kts | 244° |
| 2026-04-22 01:46 | -30.73441 | -63.27189 | 40150 ft | 392 kts | 244° |
| 2026-04-22 01:46 | -30.76656 | -63.32321 | 40147 ft | 392 kts | 244° |
| 2026-04-22 01:47 | -30.79823 | -63.37434 | 40146 ft | 391 kts | 245° |
| 2026-04-22 01:47 | -30.82963 | -63.42597 | 40148 ft | 391 kts | 244° |
| 2026-04-22 01:48 | -30.86124 | -63.47751 | 40150 ft | 391 kts | 245° |
| 2026-04-22 01:48 | -30.89269 | -63.52908 | 40155 ft | 390 kts | 245° |
| 2026-04-22 01:49 | -30.92421 | -63.58068 | 40156 ft | 391 kts | 244° |
| 2026-04-22 01:49 | -30.95638 | -63.63141 | 40156 ft | 392 kts | 244° |
| 2026-04-22 01:50 | -30.98846 | -63.68264 | 40156 ft | 391 kts | 244° |
| 2026-04-22 01:50 | -31.02061 | -63.73388 | 40157 ft | 392 kts | 244° |
| 2026-04-22 01:51 | -31.05274 | -63.78519 | 40158 ft | 392 kts | 244° |
| 2026-04-22 01:51 | -31.08477 | -63.83643 | 40155 ft | 392 kts | 244° |
| 2026-04-22 01:52 | -31.11694 | -63.88792 | 40157 ft | 392 kts | 244° |
| 2026-04-22 01:52 | -31.14909 | -63.93947 | 40161 ft | 392 kts | 244° |
| 2026-04-22 01:53 | -31.18121 | -63.99103 | 40165 ft | 393 kts | 244° |
| 2026-04-22 01:53 | -31.21330 | -64.04262 | 40163 ft | 393 kts | 244° |
| 2026-04-22 01:54 | -31.24521 | -64.09397 | 40166 ft | 393 kts | 244° |
| 2026-04-22 01:54 | -31.27730 | -64.14569 | 40166 ft | 393 kts | 245° |
| 2026-04-22 01:55 | -31.30916 | -64.19765 | 40165 ft | 388 kts | 248° |
| 2026-04-22 01:55 | -31.32102 | -64.22541 | 40166 ft | 377 kts | 256° |
| 2026-04-22 01:55 | -31.33093 | -64.25389 | 40169 ft | 377 kts | 256° |
| 2026-04-22 01:56 | -31.35092 | -64.31017 | 40142 ft | 378 kts | 256° |
| 2026-04-22 01:56 | -31.37104 | -64.36713 | 40151 ft | 377 kts | 256° |
| 2026-04-22 01:57 | -31.39103 | -64.42380 | 40152 ft | 375 kts | 256° |
| 2026-04-22 01:57 | -31.41085 | -64.48009 | 40152 ft | 377 kts | 256° |
| 2026-04-22 01:58 | -31.43081 | -64.53685 | 40154 ft | 377 kts | 256° |
| 2026-04-22 01:58 | -31.45078 | -64.59374 | 40156 ft | 377 kts | 256° |
| 2026-04-22 01:59 | -31.47070 | -64.65065 | 40160 ft | 378 kts | 256° |
| 2026-04-22 01:59 | -31.49069 | -64.70768 | 40159 ft | 378 kts | 256° |
| 2026-04-22 02:00 | -31.51058 | -64.76470 | 40156 ft | 377 kts | 256° |
| 2026-04-22 02:00 | -31.53043 | -64.82164 | 40157 ft | 378 kts | 256° |
| 2026-04-22 02:01 | -31.55018 | -64.87838 | 40155 ft | 379 kts | 256° |
| 2026-04-22 02:01 | -31.57007 | -64.93563 | 40156 ft | 379 kts | 256° |
| 2026-04-22 02:02 | -31.58993 | -64.99287 | 40157 ft | 380 kts | 256° |
| 2026-04-22 02:02 | -31.60972 | -65.05002 | 40148 ft | 380 kts | 256° |